createdAt,value
2023-01-20T00:01:29.295Z,97454.78
2023-01-20T00:03:57.761Z,97461.97
2023-01-20T00:06:29.890Z,97456.22
2023-01-20T00:08:59.683Z,97467.56
2023-01-20T00:11:27.086Z,97474.84
2023-01-20T00:13:56.026Z,97465.44
2023-01-20T00:16:24.020Z,97478.09
2023-01-20T00:18:50.934Z,97463.28
2023-01-20T00:21:18.478Z,97472.84
2023-01-20T00:23:46.363Z,97456.63
2023-01-20T00:26:16.512Z,97459.97
2023-01-20T00:28:44.716Z,97452.13
2023-01-20T00:31:21.085Z,97440.56
2023-01-20T00:33:49.716Z,97455.75
2023-01-20T00:36:18.795Z,97440.59
2023-01-20T00:38:46.065Z,97451.38
2023-01-20T00:41:13.495Z,97441.81
2023-01-20T00:43:40.783Z,97436.63
2023-01-20T00:46:08.150Z,97430.78
2023-01-20T00:48:36.108Z,97429.38
2023-01-20T00:51:04.288Z,97422.00
2023-01-20T00:53:31.942Z,97421.88
2023-01-20T00:55:58.990Z,97410.94
2023-01-20T00:58:25.973Z,97421.63
2023-01-20T01:00:54.148Z,97410.97
2023-01-20T01:03:21.750Z,97404.06
2023-01-20T01:05:48.725Z,97398.78
2023-01-20T01:08:15.636Z,97392.19
2023-01-20T01:10:42.661Z,97383.88
2023-01-20T01:13:10.215Z,97389.88
2023-01-20T01:15:37.376Z,97379.72
2023-01-20T01:18:04.433Z,97386.81
2023-01-20T01:20:31.657Z,97386.00
2023-01-20T01:22:58.681Z,97386.00
2023-01-20T01:25:25.577Z,97388.56
2023-01-20T01:27:52.455Z,97381.84
2023-01-20T01:30:19.405Z,97376.88
2023-01-20T01:32:47.431Z,97379.94
2023-01-20T01:35:14.503Z,97373.56
2023-01-20T01:37:41.531Z,97379.50
2023-01-20T01:40:09.353Z,97365.50
2023-01-20T01:42:36.863Z,97367.97
2023-01-20T01:45:13.385Z,97365.03
2023-01-20T01:47:45.764Z,97361.47
2023-01-20T01:50:19.950Z,97366.16
2023-01-20T01:52:51.293Z,97357.19
2023-01-20T01:55:19.710Z,97347.19
2023-01-20T01:57:48.115Z,97355.78
2023-01-20T02:00:15.272Z,97351.22
2023-01-20T02:02:43.921Z,97353.66
2023-01-20T02:05:13.885Z,97350.97
2023-01-20T02:07:45.034Z,97338.56
2023-01-20T02:10:12.997Z,97347.06
2023-01-20T02:12:41.343Z,97335.63
2023-01-20T02:15:09.389Z,97336.44
2023-01-20T02:18:02.664Z,97332.81
2023-01-20T02:20:47.599Z,97329.31
2023-01-20T02:23:32.829Z,97337.25
2023-01-20T02:26:08.782Z,97325.09
2023-01-20T02:29:07.982Z,97331.69
2023-01-20T02:32:13.050Z,97328.19
2023-01-20T02:34:46.717Z,97333.91
2023-01-20T02:37:27.958Z,97328.06
2023-01-20T02:40:14.388Z,97335.94
2023-01-20T02:42:46.498Z,97332.06
2023-01-20T02:46:03.578Z,97330.44
2023-01-20T02:48:53.564Z,97326.13
2023-01-20T02:51:33.597Z,97320.88
2023-01-20T02:54:05.942Z,97334.84
2023-01-20T02:56:34.961Z,97321.69
2023-01-20T02:59:10.554Z,97323.47
2023-01-20T03:01:46.015Z,97323.47
2023-01-20T03:04:16.965Z,97323.63
2023-01-20T03:06:51.202Z,97326.75
2023-01-20T03:09:24.449Z,97332.03
2023-01-20T03:11:56.675Z,97331.19
2023-01-20T03:14:23.870Z,97335.31
2023-01-20T03:16:51.245Z,97340.84
2023-01-20T03:19:20.587Z,97343.19
2023-01-20T03:21:48.552Z,97335.97
2023-01-20T03:24:15.688Z,97335.50
2023-01-20T03:26:42.669Z,97341.59
2023-01-20T03:29:16.156Z,97335.97
2023-01-20T03:31:48.279Z,97330.38
2023-01-20T03:34:19.694Z,97326.06
2023-01-20T03:36:47.828Z,97326.59
2023-01-20T03:39:15.047Z,97338.97
2023-01-20T03:42:01.152Z,97345.81
2023-01-20T03:44:39.957Z,97337.97
2023-01-20T03:47:35.802Z,97337.47
2023-01-20T03:50:23.304Z,97330.00
2023-01-20T03:53:16.433Z,97330.34
2023-01-20T03:55:49.969Z,97337.63
2023-01-20T03:58:22.277Z,97341.41
2023-01-20T04:00:50.627Z,97339.06
2023-01-20T04:03:34.062Z,97358.00
2023-01-20T04:06:03.364Z,97359.09
2023-01-20T04:08:39.442Z,97361.91
2023-01-20T04:11:08.497Z,97360.78
2023-01-20T04:13:36.023Z,97358.66
2023-01-20T04:16:05.618Z,97358.38
2023-01-20T04:18:32.570Z,97361.94
2023-01-20T04:21:02.538Z,97358.13
2023-01-20T04:23:48.143Z,97359.63
2023-01-20T04:26:15.006Z,97361.78
2023-01-20T04:28:41.906Z,97371.34
2023-01-20T04:31:18.230Z,97367.88
2023-01-20T04:33:55.873Z,97377.75
2023-01-20T04:36:22.804Z,97375.41
2023-01-20T04:38:49.651Z,97373.28
2023-01-20T04:41:16.494Z,97375.28
2023-01-20T04:43:45.270Z,97379.06
2023-01-20T04:46:13.677Z,97377.56
2023-01-20T04:48:40.847Z,97376.78
2023-01-20T04:51:08.301Z,97374.13
2023-01-20T04:53:35.241Z,97377.22
2023-01-20T04:56:02.182Z,97372.31
2023-01-20T04:58:29.230Z,97377.09
2023-01-20T05:00:56.089Z,97378.91
2023-01-20T05:03:23.029Z,97390.91
2023-01-20T05:05:55.951Z,97388.13
2023-01-20T05:08:23.077Z,97386.63
2023-01-20T05:10:50.043Z,97392.03
2023-01-20T05:13:17.013Z,97383.84
2023-01-20T05:15:44.565Z,97379.88
2023-01-20T05:18:11.663Z,97375.78
2023-01-20T05:20:38.558Z,97369.84
2023-01-20T05:23:05.663Z,97371.84
2023-01-20T05:25:32.652Z,97368.53
2023-01-20T05:28:00.761Z,97375.94
2023-01-20T05:30:28.005Z,97380.06
2023-01-20T05:32:55.058Z,97375.63
2023-01-20T05:35:22.255Z,97370.69
2023-01-20T05:37:52.506Z,97373.66
2023-01-20T05:40:19.363Z,97371.34
2023-01-20T05:42:46.358Z,97369.41
2023-01-20T05:45:13.523Z,97365.28
2023-01-20T05:47:40.690Z,97365.44
2023-01-20T05:50:07.946Z,97365.25
2023-01-20T05:52:34.874Z,97372.97
2023-01-20T05:55:01.951Z,97371.19
2023-01-20T05:57:28.955Z,97365.78
2023-01-20T05:59:55.901Z,97384.31
2023-01-20T06:02:22.884Z,97382.03
2023-01-20T06:04:49.923Z,97382.69
2023-01-20T06:07:16.844Z,97393.50
2023-01-20T06:09:43.698Z,97389.41
2023-01-20T06:12:10.545Z,97401.44
2023-01-20T06:14:37.453Z,97388.59
2023-01-20T06:17:04.657Z,97388.44
2023-01-20T06:19:31.496Z,97389.41
2023-01-20T06:21:58.470Z,97387.28
2023-01-20T06:24:25.329Z,97389.59
2023-01-20T06:26:52.303Z,97389.78
2023-01-20T06:29:19.295Z,97388.44
2023-01-20T06:31:46.801Z,97385.31
2023-01-20T06:34:14.174Z,97386.81
2023-01-20T06:36:41.099Z,97386.94
2023-01-20T06:39:08.047Z,97383.34
2023-01-20T06:41:34.888Z,97385.81
2023-01-20T06:44:01.803Z,97385.66
2023-01-20T06:46:29.044Z,97384.00
2023-01-20T06:49:00.664Z,97380.38
2023-01-20T06:51:30.338Z,97374.28
2023-01-20T06:53:58.097Z,97368.00
2023-01-20T06:56:25.300Z,97364.22
2023-01-20T06:58:52.302Z,97373.09
2023-01-20T07:01:23.272Z,97369.81
2023-01-20T07:03:50.559Z,97366.31
2023-01-20T07:06:38.596Z,97365.41
2023-01-20T07:09:07.868Z,97364.41
2023-01-20T07:11:37.669Z,97356.31
2023-01-20T07:14:05.955Z,97358.66
2023-01-20T07:16:33.787Z,97368.88
2023-01-20T07:19:00.814Z,97357.78
2023-01-20T07:21:27.910Z,97360.66
2023-01-20T07:23:54.847Z,97372.44
2023-01-20T07:26:23.380Z,97365.38
2023-01-20T07:28:50.348Z,97364.81
2023-01-20T07:31:19.641Z,97373.88
2023-01-20T07:33:46.840Z,97369.00
2023-01-20T07:36:15.008Z,97368.91
2023-01-20T07:38:42.271Z,97368.38
2023-01-20T07:41:15.940Z,97365.34
2023-01-20T07:43:44.606Z,97364.59
2023-01-20T07:46:12.015Z,97367.88
2023-01-20T07:48:39.215Z,97366.28
2023-01-20T07:51:08.828Z,97371.47
2023-01-20T07:53:40.864Z,97375.22
2023-01-20T07:56:12.616Z,97361.94
2023-01-20T07:58:39.955Z,97359.38
2023-01-20T08:01:14.061Z,97347.28
2023-01-20T08:03:41.345Z,97349.31
2023-01-20T08:06:11.089Z,97362.34
2023-01-20T08:08:38.074Z,97351.97
2023-01-20T08:11:07.104Z,97358.13
2023-01-20T08:13:34.732Z,97368.50
2023-01-20T08:16:04.176Z,97370.22
2023-01-20T08:18:34.017Z,97370.03
2023-01-20T08:21:01.895Z,97358.56
2023-01-20T08:23:28.748Z,97364.22
2023-01-20T08:26:00.221Z,97367.22
2023-01-20T08:28:27.733Z,97365.31
2023-01-20T08:30:55.784Z,97370.44
2023-01-20T08:33:22.702Z,97365.31
2023-01-20T08:35:49.570Z,97370.78
2023-01-20T08:38:16.508Z,97359.13
2023-01-20T08:40:43.895Z,97364.84
2023-01-20T08:43:10.817Z,97362.22
2023-01-20T08:45:37.789Z,97358.59
2023-01-20T08:48:04.779Z,97356.28
2023-01-20T08:50:31.700Z,97352.47
2023-01-20T08:52:58.636Z,97344.63
2023-01-20T08:55:25.571Z,97344.38
2023-01-20T08:57:52.459Z,97331.06
2023-01-20T09:00:20.019Z,97326.69
2023-01-20T09:02:47.054Z,97325.88
2023-01-20T09:05:15.136Z,97334.97
2023-01-20T09:07:42.362Z,97329.25
2023-01-20T09:10:09.745Z,97314.38
2023-01-20T09:12:37.757Z,97311.22
2023-01-20T09:15:07.685Z,97297.25
2023-01-20T09:17:36.238Z,97299.75
2023-01-20T09:20:03.264Z,97294.09
2023-01-20T09:22:30.237Z,97287.25
2023-01-20T09:24:57.095Z,97289.09
2023-01-20T09:27:25.508Z,97278.00
2023-01-20T09:29:52.366Z,97270.31
2023-01-20T09:32:19.245Z,97266.41
2023-01-20T09:34:46.137Z,97262.69
2023-01-20T09:37:31.467Z,97260.13
2023-01-20T09:40:17.388Z,97267.03
2023-01-20T09:43:35.154Z,97254.31
2023-01-20T10:17:22.382Z,97203.03
2023-01-20T10:20:10.374Z,97197.16
2023-01-20T10:22:54.185Z,97190.84
2023-01-20T10:25:41.281Z,97188.72
2023-01-20T10:28:12.162Z,97179.94
2023-01-20T10:30:39.808Z,97171.28
2023-01-20T10:33:26.417Z,97177.09
2023-01-20T10:35:57.085Z,97157.63
2023-01-20T10:38:43.365Z,97151.72
2023-01-20T10:41:24.551Z,97161.56
2023-01-20T10:43:51.639Z,97152.22
2023-01-20T10:46:46.266Z,97136.59
2023-01-20T10:49:47.064Z,97124.59
2023-01-20T10:52:25.832Z,97125.16
2023-01-20T10:55:11.539Z,97129.75
2023-01-20T10:57:39.342Z,97122.03
2023-01-20T11:00:17.835Z,97130.28
2023-01-20T11:02:45.249Z,97118.31
2023-01-20T11:05:22.466Z,97127.53
2023-01-20T11:07:51.811Z,97117.97
2023-01-20T11:10:24.948Z,97122.28
2023-01-20T11:12:55.097Z,97108.34
2023-01-20T11:15:23.455Z,97104.09
2023-01-20T11:18:16.503Z,97105.34
2023-01-20T11:20:51.271Z,97095.19
2023-01-20T11:23:38.896Z,97096.38
2023-01-20T11:26:28.164Z,97092.13
2023-01-20T11:28:59.916Z,97090.09
2023-01-20T11:31:49.727Z,97080.69
2023-01-20T11:34:25.997Z,97083.13
2023-01-20T11:37:20.362Z,97073.94
2023-01-20T11:39:49.857Z,97077.00
2023-01-20T11:42:25.179Z,97072.06
2023-01-20T11:45:08.523Z,97064.72
2023-01-20T11:47:45.037Z,97072.84
2023-01-20T11:50:18.081Z,97068.13
2023-01-20T11:52:47.447Z,97061.63
2023-01-20T11:55:24.750Z,97061.38
2023-01-20T11:57:55.969Z,97048.03
2023-01-20T12:00:32.047Z,97057.16
2023-01-20T12:03:23.988Z,97061.13
2023-01-20T12:05:57.353Z,97069.78
2023-01-20T12:08:29.376Z,97056.63
2023-01-20T12:11:00.586Z,97040.19
2023-01-20T12:13:56.218Z,97047.75
2023-01-20T12:16:26.213Z,97038.56
2023-01-20T12:19:02.249Z,97034.66
2023-01-20T12:21:35.552Z,97034.41
2023-01-20T12:24:42.096Z,97043.34
2023-01-20T12:27:20.955Z,97041.31
2023-01-20T12:29:53.523Z,97032.78
2023-01-20T12:32:20.804Z,97042.97
2023-01-20T12:34:47.703Z,97037.44
2023-01-20T12:37:57.379Z,97037.28
2023-01-20T12:40:40.342Z,97041.78
2023-01-20T12:43:26.979Z,97046.47
2023-01-20T12:46:06.179Z,97029.75
2023-01-20T12:48:44.969Z,97047.38
2023-01-20T12:51:27.277Z,97038.66
2023-01-20T12:54:02.122Z,97043.88
2023-01-20T12:56:52.655Z,97034.28
2023-01-20T12:59:35.759Z,97036.03
2023-01-20T13:02:21.233Z,97024.19
2023-01-20T13:04:51.170Z,97028.72
2023-01-20T13:07:42.076Z,97031.41
2023-01-20T13:10:30.449Z,97040.81
2023-01-20T13:13:21.546Z,97033.69
2023-01-20T13:16:10.645Z,97037.53
2023-01-20T13:18:47.072Z,97040.59
2023-01-20T13:21:19.183Z,97044.06
2023-01-20T13:23:47.540Z,97039.34
2023-01-20T13:26:15.789Z,97045.47
2023-01-20T13:28:53.846Z,97052.88
2023-01-20T13:31:31.557Z,97047.97
2023-01-20T13:34:23.186Z,97048.97
2023-01-20T13:37:02.430Z,97052.19
2023-01-20T13:39:40.728Z,97048.28
2023-01-20T13:42:40.057Z,97054.81
2023-01-20T13:45:12.941Z,97058.09
2023-01-20T13:48:02.512Z,97056.22
2023-01-20T13:50:38.319Z,97053.94
2023-01-20T13:53:11.044Z,97056.69
2023-01-20T13:55:41.780Z,97051.16
2023-01-20T13:58:30.025Z,97056.84
2023-01-20T14:01:03.053Z,97059.88
2023-01-20T14:03:38.531Z,97064.53
2023-01-20T14:06:13.301Z,97074.94
2023-01-20T14:08:48.878Z,97085.47
2023-01-20T14:11:19.789Z,97087.00
2023-01-20T14:13:53.812Z,97108.38
2023-01-20T14:16:25.571Z,97131.94
2023-01-20T14:18:55.364Z,97140.13
2023-01-20T14:21:26.048Z,97142.84
2023-01-20T14:23:53.515Z,97141.22
2023-01-20T14:26:24.972Z,97153.53
2023-01-20T14:28:54.643Z,97147.25
2023-01-20T14:31:23.168Z,97158.84
2023-01-20T14:33:56.262Z,97157.63
2023-01-20T14:36:24.946Z,97161.41
2023-01-20T14:38:58.243Z,97154.72
2023-01-20T14:41:30.222Z,97154.38
2023-01-20T14:43:57.727Z,97160.16
2023-01-20T14:46:26.458Z,97157.00
2023-01-20T14:48:56.006Z,97152.38
2023-01-20T14:51:23.628Z,97146.59
2023-01-20T14:54:30.233Z,97154.41
2023-01-20T14:56:58.756Z,97136.47
2023-01-20T14:59:26.703Z,97141.06
2023-01-20T15:01:55.727Z,97129.56
2023-01-20T15:04:23.330Z,97138.84
2023-01-20T15:06:58.268Z,97148.09
2023-01-20T15:09:35.932Z,97147.38
2023-01-20T15:12:36.340Z,97151.41
2023-01-20T15:15:25.717Z,97154.13
2023-01-20T15:18:11.111Z,97144.41
2023-01-20T15:20:41.801Z,97152.72
2023-01-20T15:23:36.840Z,97151.22
2023-01-20T15:26:22.130Z,97140.66
2023-01-20T15:28:49.243Z,97132.19
2023-01-20T15:31:17.384Z,97139.72
2023-01-20T15:33:44.461Z,97134.03
2023-01-20T15:36:37.170Z,97130.94
2023-01-20T15:39:04.129Z,97128.81
2023-01-20T15:41:31.017Z,97128.94
2023-01-20T15:43:57.949Z,97135.72
2023-01-20T15:46:25.206Z,97129.34
2023-01-20T15:48:52.214Z,97126.91
2023-01-20T15:51:20.167Z,97123.28
2023-01-20T15:53:47.758Z,97122.31
2023-01-20T15:56:29.164Z,97120.47
2023-01-20T15:58:57.047Z,97111.16
2023-01-20T16:01:26.708Z,97112.00
2023-01-20T16:03:57.369Z,97107.91
2023-01-20T16:06:30.633Z,97110.03
2023-01-20T16:08:58.463Z,97109.38
2023-01-20T16:11:25.347Z,97100.69
2023-01-20T16:13:52.295Z,97095.44
2023-01-20T16:16:22.989Z,97099.84
2023-01-20T16:18:50.133Z,97110.84
2023-01-20T16:21:19.065Z,97116.59
2023-01-20T16:23:46.233Z,97130.88
2023-01-20T16:26:22.891Z,97133.00
2023-01-20T16:28:51.148Z,97144.19
2023-01-20T16:31:18.953Z,97145.50
2023-01-20T16:33:46.101Z,97138.63
2023-01-20T16:36:15.223Z,97152.41
2023-01-20T16:38:42.499Z,97151.09
2023-01-20T16:41:22.933Z,97137.97
2023-01-20T16:43:51.384Z,97142.88
2023-01-20T16:46:21.713Z,97130.56
2023-01-20T16:48:48.889Z,97132.22
2023-01-20T16:51:18.658Z,97136.31
2023-01-20T16:53:45.893Z,97135.84
2023-01-20T16:56:28.211Z,97141.75
2023-01-20T16:59:01.615Z,97151.09
2023-01-20T17:01:30.248Z,97149.94
2023-01-20T17:04:02.542Z,97157.66
2023-01-20T17:06:32.289Z,97160.94
2023-01-20T17:09:01.448Z,97159.91
2023-01-20T17:11:29.418Z,97160.75
2023-01-20T17:13:57.241Z,97156.34
2023-01-20T17:16:26.226Z,97169.31
2023-01-20T17:18:55.581Z,97164.06
2023-01-20T17:21:23.846Z,97168.50
2023-01-20T17:24:02.934Z,97177.00
2023-01-20T17:26:30.575Z,97197.50
2023-01-20T17:29:02.333Z,97191.75
2023-01-20T17:31:31.989Z,97183.22
2023-01-20T17:33:58.977Z,97197.34
2023-01-20T17:36:25.867Z,97197.50
2023-01-20T17:38:52.815Z,97201.16
2023-01-20T17:41:19.785Z,97203.75
2023-01-20T17:43:46.781Z,97214.72
2023-01-20T17:46:23.719Z,97233.75
2023-01-20T17:48:51.070Z,97236.03
2023-01-20T17:51:24.058Z,97232.44
2023-01-20T17:53:51.852Z,97233.13
2023-01-20T17:56:20.660Z,97235.25
2023-01-20T17:58:48.683Z,97229.81
2023-01-20T18:01:16.923Z,97223.25
2023-01-20T18:03:45.278Z,97228.28
2023-01-20T18:06:14.587Z,97217.47
2023-01-20T18:08:42.835Z,97228.25
2023-01-20T18:11:19.679Z,97226.00
2023-01-20T18:13:47.872Z,97223.66
2023-01-20T18:16:17.087Z,97218.38
2023-01-20T18:18:45.334Z,97210.31
2023-01-20T18:21:16.542Z,97215.53
2023-01-20T18:23:44.309Z,97219.16
2023-01-20T18:26:13.918Z,97218.34
2023-01-20T18:28:41.850Z,97216.88
2023-01-20T18:31:13.007Z,97229.97
2023-01-20T18:33:45.811Z,97221.25
2023-01-20T18:36:15.234Z,97217.81
2023-01-20T18:38:46.201Z,97216.72
2023-01-20T18:41:14.308Z,97225.38
2023-01-20T18:43:41.849Z,97236.59
2023-01-20T18:46:09.644Z,97234.72
2023-01-20T18:48:40.559Z,97236.81
2023-01-20T18:51:10.777Z,97229.34
2023-01-20T18:53:37.756Z,97224.09
2023-01-20T18:56:07.485Z,97229.03
2023-01-20T18:58:35.319Z,97236.31
2023-01-20T19:01:07.828Z,97243.88
2023-01-20T19:03:35.725Z,97236.22
2023-01-20T19:06:08.254Z,97242.84
2023-01-20T19:08:35.208Z,97242.94
2023-01-20T19:11:03.691Z,97235.06
2023-01-20T19:13:30.623Z,97234.34
2023-01-20T19:15:58.230Z,97229.47
2023-01-20T19:18:25.804Z,97216.88
2023-01-20T19:20:52.900Z,97210.88
2023-01-20T19:23:20.317Z,97217.75
2023-01-20T19:25:47.283Z,97218.72
2023-01-20T19:28:14.585Z,97216.09
2023-01-20T19:30:41.902Z,97206.66
2023-01-20T19:33:12.283Z,97189.78
2023-01-20T19:35:41.912Z,97187.97
2023-01-20T19:38:09.207Z,97184.63
2023-01-20T19:40:36.145Z,97177.06
2023-01-20T19:43:03.057Z,97180.03
2023-01-20T19:45:44.802Z,97167.09
2023-01-20T19:48:12.485Z,97183.38
2023-01-20T19:50:39.740Z,97204.97
2023-01-20T19:53:06.723Z,97215.41
2023-01-20T19:55:33.589Z,97224.38
2023-01-20T19:58:00.440Z,97227.25
2023-01-20T20:00:27.484Z,97218.56
2023-01-20T20:02:54.684Z,97210.72
2023-01-20T20:05:21.617Z,97193.75
2023-01-20T20:07:48.624Z,97207.31
2023-01-20T20:10:18.325Z,97210.84
2023-01-20T20:12:45.468Z,97216.22
2023-01-20T20:15:12.372Z,97225.34
2023-01-20T20:17:39.306Z,97220.31
2023-01-20T20:20:06.611Z,97219.94
2023-01-20T20:22:33.533Z,97229.69
2023-01-20T20:25:00.569Z,97227.44
2023-01-20T20:27:27.475Z,97233.31
2023-01-20T20:29:56.961Z,97251.28
2023-01-20T20:32:26.005Z,97247.97
2023-01-20T20:34:54.282Z,97255.56
2023-01-20T20:37:21.219Z,97259.56
2023-01-20T20:39:48.140Z,97287.13
2023-01-20T20:42:15.144Z,97284.50
2023-01-20T20:44:42.308Z,97294.56
2023-01-20T20:47:09.199Z,97298.16
2023-01-20T20:49:36.059Z,97310.09
2023-01-20T20:52:02.983Z,97309.75
2023-01-20T20:54:29.981Z,97315.94
2023-01-20T20:56:56.949Z,97317.50
2023-01-20T20:59:24.875Z,97338.34
2023-01-20T21:01:52.682Z,97327.28
2023-01-20T21:04:19.658Z,97324.72
2023-01-20T21:06:46.594Z,97337.44
2023-01-20T21:09:13.444Z,97346.59
2023-01-20T21:11:42.930Z,97344.56
2023-01-20T21:14:10.192Z,97352.88
2023-01-20T21:16:38.020Z,97357.63
2023-01-20T21:19:05.388Z,97360.34
2023-01-20T21:21:32.300Z,97364.94
2023-01-20T21:23:59.819Z,97371.94
2023-01-20T21:26:30.503Z,97413.59
2023-01-20T21:29:01.982Z,97412.41
2023-01-20T21:31:31.083Z,97410.56
2023-01-20T21:33:58.833Z,97404.75
2023-01-20T21:36:27.828Z,97405.38
2023-01-20T21:38:54.866Z,97417.38
2023-01-20T21:41:22.136Z,97424.25
2023-01-20T21:44:07.743Z,97424.88
2023-01-20T21:46:40.446Z,97429.75
2023-01-20T21:49:27.323Z,97434.44
2023-01-20T21:52:14.031Z,97426.53
2023-01-20T21:54:41.661Z,97433.16
2023-01-20T21:57:09.198Z,97440.22
2023-01-20T21:59:36.564Z,97461.06
2023-01-20T22:02:03.737Z,97468.38
2023-01-20T22:04:30.635Z,97483.28
2023-01-20T22:06:57.875Z,97482.41
2023-01-20T22:09:24.852Z,97495.06
2023-01-20T22:11:51.726Z,97499.31
2023-01-20T22:14:18.765Z,97504.47
2023-01-20T22:16:45.739Z,97493.75
2023-01-20T22:19:13.812Z,97491.41
2023-01-20T22:21:41.158Z,97498.91
2023-01-20T22:24:08.535Z,97501.84
2023-01-20T22:26:35.541Z,97505.31
2023-01-20T22:29:02.393Z,97513.34
2023-01-20T22:31:30.307Z,97499.06
2023-01-20T22:33:59.218Z,97502.56
2023-01-20T22:36:26.157Z,97511.22
2023-01-20T22:38:53.930Z,97504.53
2023-01-20T22:41:21.445Z,97500.41
2023-01-20T22:43:50.302Z,97494.63
2023-01-20T22:46:20.187Z,97504.56
2023-01-20T22:48:47.420Z,97502.66
2023-01-20T22:51:22.890Z,97496.88
2023-01-20T22:53:50.150Z,97501.31
2023-01-20T22:56:19.885Z,97492.09
2023-01-20T22:58:47.376Z,97488.09
2023-01-20T23:01:17.376Z,97492.94
2023-01-20T23:03:45.245Z,97499.22
2023-01-20T23:06:13.021Z,97499.69
2023-01-20T23:08:41.163Z,97500.19
2023-01-20T23:11:14.254Z,97502.88
2023-01-20T23:13:41.760Z,97512.22
2023-01-20T23:16:13.797Z,97510.94
2023-01-20T23:18:40.841Z,97517.78
2023-01-20T23:21:07.850Z,97527.59
2023-01-20T23:23:35.069Z,97532.22
2023-01-20T23:26:07.567Z,97530.88
2023-01-20T23:28:34.699Z,97541.81
2023-01-20T23:31:09.964Z,97551.94
2023-01-20T23:33:37.198Z,97548.81
2023-01-20T23:36:24.891Z,97555.00
2023-01-20T23:38:54.104Z,97547.34
2023-01-20T23:41:21.126Z,97554.72
2023-01-20T23:43:48.244Z,97557.66
2023-01-20T23:46:15.221Z,97563.81
2023-01-20T23:48:42.230Z,97561.72
2023-01-20T23:51:09.764Z,97575.72
2023-01-20T23:53:39.224Z,97569.09
2023-01-20T23:56:18.447Z,97569.22
2023-01-20T23:58:45.953Z,97570.69
